Time;durP1;ratioP1;P1;durP2;ratioP2;P2;SDS_P1;SDS_P2;PMS_P1;PMS_P2;Temp;Humidity;BMP_temperature;BMP_pressure;BME280_temperature;BME280_humidity;BME280_pressure;Samples;Min_cycle;Max_cycle;Signal;HPM_P1;HPM_P2
2023/10/23 00:00:25;;;;;;;16.10;8.50;;;;;;;13.80;86.31;96479.06;5135688;27;20047;-64
2023/10/23 00:02:52;;;;;;;16.67;8.05;;;;;;;13.80;86.76;96479.06;5135778;27;20051;-64
2023/10/23 00:05:19;;;;;;;18.73;8.48;;;;;;;13.78;86.51;96479.16;5135736;27;20047;-62
2023/10/23 00:07:46;;;;;;;15.73;8.25;;;;;;;13.77;86.42;96486.19;5135692;27;20092;-62
2023/10/23 00:10:13;;;;;;;13.10;7.93;;;;;;;13.74;85.94;96483.72;5135656;27;20129;-62
2023/10/23 00:12:40;;;;;;;16.58;7.50;;;;;;;13.69;85.98;96469.97;5135468;27;20051;-63
2023/10/23 00:15:08;;;;;;;16.20;8.55;;;;;;;13.66;86.38;96471.91;5135495;27;20080;-64
2023/10/23 00:17:37;;;;;;;13.55;8.55;;;;;;;13.59;86.77;96472.22;5135481;27;20077;-63
2023/10/23 00:20:04;;;;;;;21.92;8.20;;;;;;;13.48;88.15;96464.84;5135245;27;20465;-64
2023/10/23 00:22:32;;;;;;;26.15;9.02;;;;;;;13.51;88.90;96462.09;5135465;27;20058;-63
2023/10/23 00:24:59;;;;;;;18.98;9.27;;;;;;;13.52;88.45;96457.69;5134551;27;20147;-63
2023/10/23 00:27:26;;;;;;;18.35;8.73;;;;;;;13.48;87.72;96454.34;5135306;27;20100;-64
2023/10/23 00:29:53;;;;;;;15.73;8.43;;;;;;;13.45;87.25;96457.13;5135163;27;20047;-62
2023/10/23 00:32:20;;;;;;;17.95;8.60;;;;;;;13.38;87.54;96456.59;5135021;27;20042;-63
2023/10/23 00:34:49;;;;;;;18.17;9.65;;;;;;;13.31;88.32;96456.97;5135189;27;20108;-62
2023/10/23 00:37:16;;;;;;;17.13;8.90;;;;;;;13.34;88.52;96460.28;5135103;27;20058;-62
2023/10/23 00:39:43;;;;;;;14.45;8.93;;;;;;;13.36;88.41;96458.44;5135014;27;20043;-63
2023/10/23 00:42:10;;;;;;;20.98;8.52;;;;;;;13.36;88.49;96463.69;5134974;27;20092;-62
2023/10/23 00:44:37;;;;;;;18.15;8.20;;;;;;;13.35;88.33;96466.41;5135055;27;20096;-63
2023/10/23 00:47:05;;;;;;;16.92;8.38;;;;;;;13.36;87.81;96468.09;5134938;27;20121;-62
2023/10/23 00:49:33;;;;;;;19.35;8.95;;;;;;;13.32;88.49;96469.19;5134904;27;20050;-64
2023/10/23 00:52:03;;;;;;;15.20;8.90;;;;;;;13.27;88.35;96477.28;5134686;27;20545;-62
2023/10/23 00:54:32;;;;;;;11.18;8.75;;;;;;;13.30;88.25;96479.75;5134766;27;20075;-62
2023/10/23 00:57:00;;;;;;;16.70;8.60;;;;;;;13.31;87.91;96465.72;5134832;27;20043;-62
2023/10/23 00:59:27;;;;;;;17.48;8.50;;;;;;;13.31;87.76;96475.38;5134614;27;20043;-64
2023/10/23 01:01:55;;;;;;;21.08;9.00;;;;;;;13.27;88.15;96479.91;5134473;27;20058;-64
2023/10/23 01:04:22;;;;;;;18.85;8.00;;;;;;;13.27;87.71;96483.41;5134621;27;20092;-63
2023/10/23 01:06:50;;;;;;;21.08;8.80;;;;;;;13.25;87.69;96474.72;5134658;27;20070;-63
2023/10/23 01:09:18;;;;;;;10.05;7.20;;;;;;;13.25;87.32;96479.97;5134566;27;20422;-63
2023/10/23 01:11:45;;;;;;;16.05;8.45;;;;;;;13.20;86.96;96482.00;5134519;27;20039;-64
2023/10/23 01:14:13;;;;;;;18.15;8.50;;;;;;;13.21;87.87;96488.09;5134310;27;20138;-63
2023/10/23 01:16:40;;;;;;;19.48;8.55;;;;;;;13.22;88.28;96490.63;5134279;27;20074;-63
2023/10/23 01:19:07;;;;;;;23.42;8.73;;;;;;;13.19;88.42;96488.19;5134376;27;20046;-62
2023/10/23 01:21:34;;;;;;;15.65;8.43;;;;;;;13.19;88.54;96493.44;5134209;27;20082;-63
2023/10/23 01:24:02;;;;;;;16.75;8.07;;;;;;;13.15;88.02;96494.50;5134211;27;20086;-63
2023/10/23 01:26:30;;;;;;;15.60;8.65;;;;;;;13.08;87.94;96498.34;5134182;27;20047;-64
2023/10/23 01:28:57;;;;;;;24.27;9.55;;;;;;;13.08;87.81;96501.84;5134487;27;20434;-64
2023/10/23 01:31:24;;;;;;;22.98;8.90;;;;;;;13.09;87.91;96508.78;5134318;27;20576;-63
2023/10/23 01:33:51;;;;;;;16.23;8.13;;;;;;;13.06;87.67;96506.31;5133861;27;20146;-63
2023/10/23 01:36:18;;;;;;;18.90;8.18;;;;;;;13.01;87.68;96496.03;5133899;27;20097;-63
2023/10/23 01:38:45;;;;;;;20.02;8.20;;;;;;;13.01;87.38;96495.19;5134158;27;20047;-64
2023/10/23 01:41:12;;;;;;;18.10;8.60;;;;;;;12.97;87.24;96497.09;5134070;28;20051;-62
2023/10/23 01:43:40;;;;;;;15.05;8.77;;;;;;;12.96;87.31;96487.53;5134187;27;20059;-63
2023/10/23 01:46:07;;;;;;;13.52;8.32;;;;;;;12.94;87.65;96497.25;5134131;28;20071;-62
2023/10/23 01:48:34;;;;;;;12.15;8.00;;;;;;;12.97;87.76;96494.47;5133994;28;20122;-63
2023/10/23 01:51:02;;;;;;;20.92;8.25;;;;;;;12.94;87.92;96494.63;5133943;27;20043;-64
2023/10/23 01:53:29;;;;;;;22.10;9.43;;;;;;;12.95;88.13;96493.72;5133854;28;20499;-64
2023/10/23 01:55:56;;;;;;;16.83;8.23;;;;;;;12.95;88.25;96492.84;5133874;28;20082;-63
2023/10/23 01:58:23;;;;;;;17.50;8.55;;;;;;;12.93;88.95;96492.06;5133910;27;20047;-62
2023/10/23 02:00:52;;;;;;;19.83;9.90;;;;;;;12.84;89.75;96493.38;5133700;28;20051;-62
2023/10/23 02:03:19;;;;;;;22.02;11.40;;;;;;;12.86;91.11;96504.66;5133767;28;20053;-64
2023/10/23 02:05:47;;;;;;;22.08;10.98;;;;;;;12.90;91.54;96498.34;5133791;28;20043;-63
2023/10/23 02:08:16;;;;;;;20.42;11.25;;;;;;;12.89;91.73;96507.13;5133849;28;20051;-63
2023/10/23 02:10:43;;;;;;;23.80;10.35;;;;;;;12.95;91.84;96498.13;5133992;28;20047;-61
2023/10/23 02:13:10;;;;;;;17.13;7.90;;;;;;;13.00;91.73;96512.72;5133876;27;20142;-64
2023/10/23 02:15:37;;;;;;;15.98;8.35;;;;;;;13.01;90.96;96511.78;5133791;27;20047;-62
2023/10/23 02:18:06;;;;;;;17.35;8.18;;;;;;;13.05;91.27;96511.63;5133816;28;20071;-64
2023/10/23 02:20:33;;;;;;;21.25;8.13;;;;;;;13.08;91.51;96509.72;5133776;28;20096;-61
2023/10/23 02:23:00;;;;;;;21.02;8.70;;;;;;;13.08;91.44;96504.47;5133804;27;20142;-63
2023/10/23 02:25:27;;;;;;;18.98;7.63;;;;;;;13.09;90.65;96508.78;5133754;28;20047;-62
2023/10/23 02:27:54;;;;;;;17.98;8.30;;;;;;;13.04;90.51;96513.44;5133645;27;20043;-63
2023/10/23 02:30:21;;;;;;;16.35;8.80;;;;;;;13.00;90.33;96507.47;5133580;27;20096;-64
2023/10/23 02:32:48;;;;;;;22.40;9.30;;;;;;;12.98;90.44;96503.22;5133362;27;20057;-63
2023/10/23 02:35:17;;;;;;;14.88;8.68;;;;;;;12.98;90.28;96508.47;5133661;27;20519;-63
2023/10/23 02:37:44;;;;;;;21.77;8.25;;;;;;;12.98;89.47;96503.22;5133567;28;20047;-61
2023/10/23 02:40:12;;;;;;;17.67;8.30;;;;;;;12.94;89.36;96502.50;5133652;27;20047;-62
2023/10/23 02:42:40;;;;;;;19.77;8.52;;;;;;;12.88;89.40;96502.78;5133359;27;20061;-64
2023/10/23 02:45:08;;;;;;;18.45;8.88;;;;;;;12.86;89.23;96500.25;5133405;28;20043;-62
2023/10/23 02:47:37;;;;;;;17.42;8.68;;;;;;;12.85;89.31;96502.94;5134506;27;20053;-63
2023/10/23 02:50:04;;;;;;;19.73;8.73;;;;;;;12.85;89.06;96503.78;5137182;27;20055;-64
2023/10/23 02:52:32;;;;;;;22.65;9.40;;;;;;;12.82;89.26;96508.34;5137213;27;20047;-64
2023/10/23 02:54:59;;;;;;;16.30;8.45;;;;;;;12.82;89.72;96506.56;5137193;27;20043;-61
2023/10/23 02:57:27;;;;;;;19.67;9.00;;;;;;;12.82;89.43;96509.19;5137040;27;20043;-63
2023/10/23 02:59:56;;;;;;;19.38;8.30;;;;;;;12.80;89.77;96510.19;5136929;27;20043;-64
2023/10/23 03:02:23;;;;;;;27.33;8.93;;;;;;;12.73;90.37;96507.00;5136752;27;20488;-62
2023/10/23 03:04:50;;;;;;;22.00;9.13;;;;;;;12.66;90.79;96505.59;5136778;27;20047;-63
2023/10/23 03:07:18;;;;;;;25.02;8.80;;;;;;;12.66;90.47;96506.44;5136954;27;20043;-62
2023/10/23 03:09:47;;;;;;;18.15;8.85;;;;;;;12.65;90.45;96504.75;5136808;27;20051;-64
2023/10/23 03:12:14;;;;;;;25.20;9.45;;;;;;;12.68;90.56;96502.00;5136673;27;20138;-62
2023/10/23 03:14:41;;;;;;;15.45;8.50;;;;;;;12.70;90.10;96496.66;5136987;27;20107;-61
2023/10/23 03:17:08;;;;;;;18.80;8.65;;;;;;;12.67;90.94;96502.06;5136603;27;20134;-63
2023/10/23 03:19:35;;;;;;;21.45;8.32;;;;;;;12.70;91.54;96501.91;5136734;27;20135;-61
2023/10/23 03:22:02;;;;;;;27.08;9.82;;;;;;;12.72;91.34;96503.53;5136574;27;20051;-63
2023/10/23 03:24:30;;;;;;;20.10;8.20;;;;;;;12.75;91.78;96500.78;5136593;27;20047;-64
2023/10/23 03:26:58;;;;;;;16.88;8.63;;;;;;;12.77;90.69;96511.19;5136451;27;20103;-64
2023/10/23 03:29:25;;;;;;;20.08;8.93;;;;;;;12.79;90.27;96517.22;5136599;27;20047;-64
2023/10/23 03:31:52;;;;;;;20.00;8.90;;;;;;;12.78;90.69;96510.25;5136551;27;20047;-63
2023/10/23 03:34:19;;;;;;;18.88;8.43;;;;;;;12.74;90.53;96509.53;5136198;27;20091;-63
2023/10/23 03:36:46;;;;;;;18.50;8.50;;;;;;;12.67;90.56;96510.75;5136325;27;20047;-64
2023/10/23 03:39:15;;;;;;;24.05;9.48;;;;;;;12.63;90.09;96506.59;5136256;27;20043;-62
2023/10/23 03:41:43;;;;;;;20.00;8.80;;;;;;;12.57;90.54;96510.34;5136074;27;20055;-61
2023/10/23 03:44:12;;;;;;;16.30;7.88;;;;;;;12.55;90.55;96512.19;5136130;27;20496;-63
2023/10/23 03:46:39;;;;;;;18.70;7.60;;;;;;;12.57;90.00;96512.13;5135844;27;20053;-63
2023/10/23 03:49:06;;;;;;;19.23;9.07;;;;;;;12.57;89.84;96505.09;5135962;27;20043;-64
2023/10/23 03:51:33;;;;;;;19.60;8.57;;;;;;;12.55;90.14;96503.50;5135944;27;20088;-64
2023/10/23 03:54:00;;;;;;;17.92;8.38;;;;;;;12.55;90.24;96508.72;5135924;27;20051;-64
2023/10/23 03:56:27;;;;;;;17.15;7.95;;;;;;;12.51;90.44;96511.50;5135806;27;20134;-64
2023/10/23 03:58:54;;;;;;;23.20;8.80;;;;;;;12.57;89.86;96514.75;5135750;27;20100;-64
2023/10/23 04:01:23;;;;;;;16.27;8.07;;;;;;;12.51;89.66;96511.50;5135913;27;20054;-63
2023/10/23 04:03:50;;;;;;;30.70;7.90;;;;;;;12.53;89.20;96513.19;5135585;27;20043;-64
2023/10/23 04:06:17;;;;;;;21.02;7.55;;;;;;;12.51;88.77;96516.75;5135665;27;20049;-63
2023/10/23 04:08:45;;;;;;;18.95;9.00;;;;;;;12.44;88.67;96515.31;5135625;27;20051;-64
2023/10/23 04:11:14;;;;;;;23.23;8.50;;;;;;;12.42;88.72;96508.44;5135501;27;20198;-64
2023/10/23 04:13:41;;;;;;;17.60;8.05;;;;;;;12.44;88.39;96517.09;5135533;27;20518;-64
2023/10/23 04:16:08;;;;;;;22.73;8.48;;;;;;;12.43;88.30;96521.47;5135398;27;20089;-64
2023/10/23 04:18:37;;;;;;;19.67;7.65;;;;;;;12.41;88.25;96522.47;5135613;27;20043;-63
2023/10/23 04:21:05;;;;;;;18.70;9.05;;;;;;;12.35;88.26;96523.63;5135549;27;20047;-64
2023/10/23 04:23:33;;;;;;;22.00;8.48;;;;;;;12.32;88.91;96519.38;5135267;27;20477;-63
2023/10/23 04:26:03;;;;;;;22.73;8.88;;;;;;;12.30;89.50;96522.97;5135449;27;20039;-64
2023/10/23 04:28:31;;;;;;;;;;;;;;;12.26;89.70;96522.25;5135635;27;20520;-63
2023/10/23 04:30:58;;;;;;;15.80;7.47;;;;;;;12.21;89.68;96526.84;5135138;27;20364;-62
2023/10/23 04:33:25;;;;;;;20.92;9.07;;;;;;;12.21;89.31;96527.72;5134952;27;20051;-61
2023/10/23 04:35:55;;;;;;;21.20;7.55;;;;;;;12.23;88.63;96533.75;5135151;27;20125;-63
2023/10/23 04:38:23;;;;;;;14.95;7.30;;;;;;;12.24;88.40;96530.19;5135111;27;20078;-62
2023/10/23 04:40:53;;;;;;;27.45;8.07;;;;;;;12.21;87.90;96538.19;5134997;27;20047;-63
2023/10/23 04:43:21;;;;;;;19.70;7.50;;;;;;;12.20;87.39;96527.78;5134860;27;20131;-64
2023/10/23 04:45:49;;;;;;;24.20;7.32;;;;;;;12.18;87.25;96534.84;5134949;27;20066;-63
2023/10/23 04:48:16;;;;;;;20.05;7.57;;;;;;;12.16;87.23;96529.66;5135018;27;20047;-64
2023/10/23 04:50:43;;;;;;;23.40;8.15;;;;;;;12.17;87.31;96536.63;5134757;27;20079;-63
2023/10/23 04:53:13;;;;;;;24.90;8.70;;;;;;;12.19;88.28;96533.94;5134748;27;20147;-63
2023/10/23 04:55:41;;;;;;;18.42;7.50;;;;;;;12.15;88.83;96541.09;5134658;27;20087;-64
2023/10/23 04:58:09;;;;;;;31.30;7.90;;;;;;;12.13;89.24;96537.66;5134684;27;20553;-61
2023/10/23 05:00:37;;;;;;;21.48;8.13;;;;;;;12.12;89.59;96544.72;5134827;27;20051;-63
2023/10/23 05:03:04;;;;;;;18.30;7.60;;;;;;;12.15;89.91;96540.22;5134528;27;20058;-62
2023/10/23 05:05:32;;;;;;;18.60;8.23;;;;;;;12.18;90.30;96547.97;5134574;27;20100;-63
2023/10/23 05:07:59;;;;;;;20.55;8.25;;;;;;;12.24;90.08;96551.19;5134663;27;20441;-63
2023/10/23 05:10:28;;;;;;;14.70;8.07;;;;;;;12.25;90.01;96559.88;5134128;27;20047;-64
2023/10/23 05:12:58;;;;;;;29.98;8.63;;;;;;;12.34;90.20;96559.47;5134486;27;20043;-62
2023/10/23 05:15:26;;;;;;;18.13;5.60;;;;;;;12.41;90.58;96564.44;5134550;27;20055;-63
2023/10/23 05:17:53;;;;;;;16.40;7.50;;;;;;;12.49;90.56;96562.31;5134365;27;20496;-62
2023/10/23 05:20:20;;;;;;;17.00;7.47;;;;;;;12.60;89.97;96572.34;5134354;27;20043;-64
2023/10/23 05:22:47;;;;;;;14.32;6.53;;;;;;;12.70;89.83;96570.16;5134122;27;20047;-64
2023/10/23 05:25:14;;;;;;;21.20;5.95;;;;;;;13.01;88.93;96572.16;5134283;27;20062;-64
2023/10/23 05:27:42;;;;;;;20.92;6.25;;;;;;;13.50;87.28;96572.53;5134172;27;20039;-64
2023/10/23 05:30:09;;;;;;;18.98;6.32;;;;;;;13.92;84.58;96574.88;5134151;27;20043;-64
2023/10/23 05:32:37;;;;;;;16.35;6.50;;;;;;;14.15;83.99;96568.44;5133960;27;20040;-64
2023/10/23 05:35:05;;;;;;;11.90;6.05;;;;;;;14.36;82.90;96579.59;5134252;27;20039;-64
2023/10/23 05:37:34;;;;;;;21.33;6.57;;;;;;;14.52;82.05;96571.75;5134250;27;20081;-63
2023/10/23 05:40:03;;;;;;;16.33;6.38;;;;;;;14.72;81.79;96577.69;5134032;27;20059;-64
2023/10/23 05:42:31;;;;;;;14.75;5.72;;;;;;;15.07;80.86;96584.63;5134065;28;20095;-64
2023/10/23 05:44:59;;;;;;;18.75;6.60;;;;;;;15.36;79.25;96582.16;5134097;28;20046;-63
2023/10/23 05:47:28;;;;;;;16.40;5.55;;;;;;;15.90;78.15;96582.63;5134138;27;20119;-64
2023/10/23 05:49:55;;;;;;;25.17;6.70;;;;;;;16.65;74.96;96594.88;5134118;27;20044;-65
2023/10/23 05:52:22;;;;;;;16.77;4.90;;;;;;;17.17;71.25;96589.09;5133875;28;20150;-64
2023/10/23 05:54:49;;;;;;;14.38;4.75;;;;;;;17.65;70.66;96590.44;5133992;27;20043;-64
2023/10/23 05:57:16;;;;;;;21.50;5.70;;;;;;;18.69;67.16;96590.53;5133956;27;20127;-64
2023/10/23 05:59:43;;;;;;;12.02;5.10;;;;;;;19.89;63.05;96599.69;5133892;28;20051;-63
2023/10/23 06:02:11;;;;;;;20.10;5.30;;;;;;;20.90;58.97;96594.72;5134019;27;20050;-65
2023/10/23 06:04:38;;;;;;;14.90;4.55;;;;;;;21.83;56.52;96596.22;5134089;28;20077;-64
2023/10/23 06:07:05;;;;;;;12.00;4.25;;;;;;;22.66;53.90;96598.16;5133979;27;20488;-63
2023/10/23 06:09:33;;;;;;;14.45;5.25;;;;;;;23.20;52.62;96595.25;5133775;28;20083;-60
2023/10/23 06:12:00;;;;;;;16.30;5.07;;;;;;;24.03;50.33;96593.25;5133945;27;20043;-63
2023/10/23 06:14:27;;;;;;;19.38;5.05;;;;;;;24.30;49.35;96596.19;5133805;27;20062;-63
2023/10/23 06:16:54;;;;;;;9.68;4.22;;;;;;;24.14;49.49;96604.81;5133788;27;20039;-63
2023/10/23 06:19:22;;;;;;;15.55;4.45;;;;;;;23.84;49.65;96613.63;5133700;28;20488;-65
2023/10/23 06:21:49;;;;;;;12.82;4.95;;;;;;;23.33;49.98;96607.53;5133763;27;20048;-64
2023/10/23 06:24:16;;;;;;;13.43;5.32;;;;;;;22.85;51.07;96605.38;5137427;27;20138;-64
2023/10/23 06:26:43;;;;;;;14.38;5.00;;;;;;;22.46;51.64;96610.50;5137676;27;20377;-62
2023/10/23 06:29:10;;;;;;;17.63;5.30;;;;;;;22.24;54.16;96608.84;5137914;27;20047;-62
2023/10/23 06:31:38;;;;;;;20.02;5.45;;;;;;;22.26;54.53;96615.72;5137638;27;20071;-65
2023/10/23 06:34:06;;;;;;;18.35;4.50;;;;;;;22.06;54.62;96612.91;5137405;27;20439;-64
2023/10/23 06:36:40;;;;;;;18.42;5.32;;;;;;;21.79;55.65;96610.75;5137488;27;20135;-64
2023/10/23 06:39:07;;;;;;;23.27;5.65;;;;;;;21.49;56.98;96614.94;5137373;27;20134;-63
2023/10/23 06:41:34;;;;;;;16.27;5.65;;;;;;;21.16;57.82;96609.56;5137453;27;20475;-62
2023/10/23 06:44:02;;;;;;;11.27;5.70;;;;;;;20.83;58.83;96602.28;5137243;27;20051;-63
2023/10/23 06:46:30;;;;;;;19.80;5.45;;;;;;;20.57;60.11;96610.50;5137338;27;20411;-64
2023/10/23 06:48:56;;;;;;;15.23;5.25;;;;;;;20.38;61.52;96616.38;5137293;27;20079;-63
2023/10/23 06:51:24;;;;;;;16.83;5.47;;;;;;;20.29;62.42;96617.94;5137443;27;20047;-64
2023/10/23 06:53:52;;;;;;;17.88;5.80;;;;;;;20.41;62.50;96615.31;5137130;27;20126;-62
2023/10/23 06:56:19;;;;;;;17.13;6.18;;;;;;;20.43;62.44;96606.25;5137270;27;20107;-65
2023/10/23 06:58:46;;;;;;;14.07;5.30;;;;;;;20.70;62.70;96601.56;5136926;27;20385;-61
2023/10/23 07:01:13;;;;;;;14.85;5.22;;;;;;;21.28;62.04;96605.06;5137026;27;20051;-62
2023/10/23 07:03:40;;;;;;;16.40;5.60;;;;;;;22.59;58.52;96613.00;5136958;27;20051;-62
2023/10/23 07:06:08;;;;;;;12.13;5.05;;;;;;;24.07;53.58;96621.38;5136892;27;20119;-64
2023/10/23 07:08:37;;;;;;;9.23;4.18;;;;;;;25.34;51.06;96615.81;5136890;27;20074;-64
2023/10/23 07:11:12;;;;;;;15.23;4.63;;;;;;;26.28;47.93;96617.41;5136962;27;20058;-63
2023/10/23 07:13:40;;;;;;;23.35;5.13;;;;;;;26.71;46.44;96625.59;5136752;27;20066;-64
2023/10/23 07:16:07;;;;;;;15.50;4.90;;;;;;;27.34;44.21;96628.09;5136702;27;20092;-63
2023/10/23 07:18:34;;;;;;;16.15;5.30;;;;;;;27.63;42.93;96618.75;5136719;27;20043;-62
2023/10/23 07:21:02;;;;;;;21.65;5.50;;;;;;;27.74;42.41;96622.16;5136697;27;20408;-64
2023/10/23 07:23:30;;;;;;;18.92;5.95;;;;;;;27.63;42.22;96623.28;5136601;27;20058;-62
2023/10/23 07:26:10;;;;;;;21.67;6.70;;;;;;;27.61;42.64;96619.94;5136439;27;20065;-63
2023/10/23 07:28:38;;;;;;;27.75;9.50;;;;;;;27.65;42.60;96618.63;5136581;27;20039;-60
2023/10/23 07:31:05;;;;;;;30.13;9.45;;;;;;;27.21;43.34;96615.09;5136320;27;20415;-63
2023/10/23 07:33:33;;;;;;;23.95;8.32;;;;;;;26.70;44.49;96615.84;5135595;27;20055;-62
2023/10/23 07:36:04;;;;;;;22.00;7.68;;;;;;;26.33;44.84;96606.22;5136336;27;20163;-62
2023/10/23 07:38:32;;;;;;;14.30;6.85;;;;;;;26.26;44.41;96605.97;5136370;27;20129;-62
2023/10/23 07:40:59;;;;;;;22.90;6.95;;;;;;;26.25;44.39;96599.75;5136322;27;20492;-63
2023/10/23 07:43:29;;;;;;;17.88;6.38;;;;;;;26.32;44.98;96602.72;5136200;27;20108;-63
2023/10/23 07:45:57;;;;;;;23.02;6.57;;;;;;;26.34;44.76;96600.69;5136138;27;20055;-64
2023/10/23 07:48:25;;;;;;;21.33;7.00;;;;;;;26.12;44.90;96591.28;5136100;27;20039;-61
2023/10/23 07:50:52;;;;;;;21.50;6.22;;;;;;;25.94;43.93;96602.88;5136074;27;20047;-61
2023/10/23 07:53:19;;;;;;;23.23;5.82;;;;;;;26.15;43.91;96596.34;5136063;27;20480;-63
2023/10/23 07:55:46;;;;;;;22.30;5.57;;;;;;;26.42;43.00;96599.06;5135925;27;20039;-63
2023/10/23 07:58:13;;;;;;;20.83;5.68;;;;;;;26.68;41.90;96595.53;5135794;27;20631;-61
2023/10/23 08:00:43;;;;;;;16.83;4.85;;;;;;;26.81;41.81;96603.16;5135922;27;20058;-62
2023/10/23 08:03:10;;;;;;;14.73;4.80;;;;;;;26.88;41.60;96605.03;5135981;27;20051;-61
2023/10/23 08:05:37;;;;;;;18.25;5.40;;;;;;;26.96;41.01;96601.56;5135802;27;20051;-63
2023/10/23 08:08:05;;;;;;;23.35;6.18;;;;;;;26.97;40.50;96603.22;5135877;27;20059;-61
2023/10/23 08:10:32;;;;;;;18.80;5.30;;;;;;;26.87;41.24;96603.38;5135636;27;20511;-61
2023/10/23 08:12:59;;;;;;;26.77;5.18;;;;;;;26.87;41.49;96595.31;5135571;27;20473;-64
2023/10/23 08:15:26;;;;;;;19.38;4.57;;;;;;;26.86;41.72;96596.34;5135469;27;20409;-63
2023/10/23 08:17:54;;;;;;;19.67;5.60;;;;;;;26.84;41.00;96589.41;5135638;27;20079;-62
2023/10/23 08:20:21;;;;;;;17.83;5.30;;;;;;;26.55;41.44;96586.06;5135636;27;20054;-61
2023/10/23 08:22:49;;;;;;;19.77;4.57;;;;;;;26.57;41.68;96593.97;5135435;27;20066;-60
2023/10/23 08:25:17;;;;;;;14.35;5.05;;;;;;;26.79;41.21;96597.94;5135280;27;20084;-61
2023/10/23 08:27:44;;;;;;;17.85;5.80;;;;;;;26.81;39.86;96589.75;5135269;27;20129;-60
2023/10/23 08:30:12;;;;;;;24.80;5.03;;;;;;;26.84;40.92;96592.09;5135250;27;20051;-62
2023/10/23 08:32:39;;;;;;;132.10;11.90;;;;;;;26.96;39.38;96587.28;5134903;27;20096;-63
2023/10/23 08:35:08;;;;;;;28.23;5.20;;;;;;;27.08;39.68;96587.88;5135113;27;20458;-62
2023/10/23 08:37:35;;;;;;;16.20;5.25;;;;;;;27.29;39.42;96587.44;5135172;27;20122;-62
2023/10/23 08:40:05;;;;;;;23.48;5.47;;;;;;;27.41;38.19;96581.78;5135246;27;20128;-62
2023/10/23 08:42:34;;;;;;;29.27;5.60;;;;;;;27.54;38.75;96573.25;5134994;27;20457;-62
2023/10/23 08:45:02;;;;;;;28.60;5.00;;;;;;;27.49;39.36;96577.28;5134193;27;20130;-63
2023/10/23 08:47:29;;;;;;;26.92;5.50;;;;;;;27.25;38.32;96570.84;5134948;27;20131;-63
2023/10/23 08:49:59;;;;;;;29.60;5.93;;;;;;;27.40;38.87;96566.66;5134932;27;20057;-62
2023/10/23 08:52:34;;;;;;;15.30;4.82;;;;;;;27.48;39.50;96566.72;5134981;27;20050;-61
2023/10/23 08:55:05;;;;;;;24.65;5.15;;;;;;;27.66;37.83;96571.13;5134879;27;20443;-62
2023/10/23 08:57:34;;;;;;;30.45;6.13;;;;;;;27.73;37.14;96564.94;5134739;27;20050;-64
2023/10/23 09:00:01;;;;;;;31.67;5.97;;;;;;;27.80;35.39;96573.16;5134756;27;20043;-64
2023/10/23 09:02:31;;;;;;;31.63;6.20;;;;;;;27.84;34.83;96571.78;5134881;27;20046;-64
2023/10/23 09:04:58;;;;;;;94.78;10.55;;;;;;;27.66;33.43;96571.94;5134686;27;20139;-62
2023/10/23 09:07:26;;;;;;;24.48;5.50;;;;;;;27.50;33.92;96567.38;5134776;27;20051;-64
2023/10/23 09:09:53;;;;;;;22.33;5.05;;;;;;;27.38;33.81;96565.00;5134707;27;20369;-64
2023/10/23 09:12:31;;;;;;;25.50;5.43;;;;;;;27.18;34.23;96561.75;5134602;27;20043;-64
2023/10/23 09:14:59;;;;;;;23.48;6.03;;;;;;;27.20;35.36;96564.25;5134565;27;20049;-61
2023/10/23 09:17:27;;;;;;;28.35;5.90;;;;;;;27.28;33.58;96569.66;5134459;27;20072;-62
2023/10/23 09:19:54;;;;;;;29.33;5.63;;;;;;;26.95;32.97;96559.66;5134596;27;20039;-62
2023/10/23 09:22:21;;;;;;;173.27;25.30;;;;;;;26.90;34.51;96559.28;5134314;27;20082;-61
2023/10/23 09:24:50;;;;;;;27.80;6.32;;;;;;;26.98;33.39;96562.03;5134246;27;20068;-62
2023/10/23 09:27:17;;;;;;;163.73;57.78;;;;;;;26.88;33.56;96564.81;5134297;27;20046;-63
2023/10/23 09:29:44;;;;;;;27.35;5.57;;;;;;;26.90;34.25;96555.78;5134254;27;20126;-64
2023/10/23 09:32:11;;;;;;;90.63;20.25;;;;;;;26.91;33.61;96560.94;5134220;27;20078;-63
2023/10/23 09:34:44;;;;;;;180.20;29.58;;;;;;;26.98;33.35;96551.31;5134135;27;20104;-61
2023/10/23 09:37:11;;;;;;;35.45;6.15;;;;;;;27.05;32.79;96548.78;5134130;27;20108;-64
2023/10/23 09:39:40;;;;;;;381.10;70.38;;;;;;;27.01;32.57;96542.09;5134041;28;20074;-62
2023/10/23 09:42:10;;;;;;;26.92;6.18;;;;;;;27.04;33.62;96538.22;5134267;27;20055;-61
2023/10/23 09:44:38;;;;;;;32.20;6.95;;;;;;;27.04;33.46;96538.22;5133940;28;20533;-63
2023/10/23 09:47:08;;;;;;;28.25;6.35;;;;;;;27.10;34.20;96534.91;5133908;27;20177;-62
2023/10/23 09:49:36;;;;;;;70.55;7.80;;;;;;;27.23;32.63;96529.91;5133990;28;20502;-64
2023/10/23 09:52:09;;;;;;;26.90;4.88;;;;;;;27.18;33.39;96536.78;5134103;27;20048;-61
2023/10/23 09:54:38;;;;;;;34.58;7.22;;;;;;;26.99;33.44;96528.81;5133911;27;20553;-62
2023/10/23 09:57:09;;;;;;;30.67;6.10;;;;;;;27.01;33.63;96528.66;5135895;27;20496;-66
2023/10/23 09:59:44;;;;;;;23.38;5.57;;;;;;;27.00;33.94;96527.81;5138324;27;20055;-64
2023/10/23 10:02:15;;;;;;;33.33;6.93;;;;;;;27.09;33.12;96519.81;5138393;27;20047;-65
2023/10/23 10:04:50;;;;;;;37.78;6.15;;;;;;;27.20;33.49;96510.59;5138096;27;20480;-65
2023/10/23 10:07:27;;;;;;;22.63;5.80;;;;;;;27.36;34.51;96513.31;5138140;27;20100;-63
2023/10/23 10:09:55;;;;;;;34.78;6.32;;;;;;;27.54;33.57;96506.13;5137923;27;20057;-63
2023/10/23 10:12:23;;;;;;;31.73;5.82;;;;;;;27.69;34.18;96506.31;5137884;27;20047;-65
2023/10/23 10:14:52;;;;;;;34.17;6.10;;;;;;;27.78;34.38;96501.78;5137915;27;20074;-63
2023/10/23 10:17:20;;;;;;;38.90;19.27;;;;;;;27.75;34.13;96497.56;5137715;27;20075;-65
2023/10/23 10:19:48;;;;;;;24.80;6.03;;;;;;;27.75;33.80;96489.50;5137764;27;20043;-65
2023/10/23 10:22:23;;;;;;;137.80;24.17;;;;;;;27.79;33.59;96492.72;5137792;27;20081;-63
2023/10/23 10:24:52;;;;;;;36.03;6.70;;;;;;;27.77;34.36;96482.13;5137786;27;20373;-65
2023/10/23 10:27:20;;;;;;;24.50;6.78;;;;;;;27.83;35.00;96481.47;5137683;27;20560;-63
2023/10/23 10:29:47;;;;;;;29.23;6.53;;;;;;;27.97;35.53;96479.94;5137592;27;20051;-65
2023/10/23 10:32:16;;;;;;;38.15;7.30;;;;;;;28.02;35.11;96479.41;5137332;27;20488;-64
2023/10/23 10:34:51;;;;;;;25.67;6.95;;;;;;;28.04;34.89;96482.78;5137652;27;20058;-63
2023/10/23 10:37:22;;;;;;;25.80;6.60;;;;;;;28.08;35.60;96469.84;5137518;27;20075;-64
2023/10/23 10:40:06;;;;;;;27.02;6.40;;;;;;;28.16;35.63;96467.13;5137600;27;20043;-62
2023/10/23 10:42:39;;;;;;;30.35;7.20;;;;;;;28.24;35.13;96468.97;5137401;27;20075;-65
2023/10/23 10:45:14;;;;;;;30.65;7.13;;;;;;;28.19;34.95;96469.47;5137279;27;20047;-65
2023/10/23 10:47:46;;;;;;;26.27;6.60;;;;;;;28.06;36.24;96467.34;5137287;27;20395;-65
2023/10/23 10:50:30;;;;;;;29.67;6.80;;;;;;;28.03;36.04;96469.50;5137270;27;20051;-64
2023/10/23 10:53:02;;;;;;;31.20;7.40;;;;;;;27.99;36.35;96463.66;5137274;27;20047;-65
2023/10/23 10:55:29;;;;;;;31.77;6.20;;;;;;;27.94;36.35;96472.22;5137232;27;20147;-64
2023/10/23 10:57:57;;;;;;;23.17;6.60;;;;;;;27.91;36.31;96463.66;5137339;27;20058;-64
2023/10/23 11:00:24;;;;;;;28.63;7.70;;;;;;;27.86;36.38;96464.16;5137086;27;20474;-63
2023/10/23 11:02:55;;;;;;;28.10;8.13;;;;;;;27.84;36.30;96464.31;5137019;27;20047;-65
2023/10/23 11:05:22;;;;;;;25.58;7.15;;;;;;;27.87;36.89;96465.81;5137000;27;20134;-61
2023/10/23 11:07:50;;;;;;;27.48;7.07;;;;;;;27.90;36.11;96464.66;5136261;27;20100;-65
2023/10/23 11:10:17;;;;;;;22.73;6.85;;;;;;;27.82;35.89;96457.44;5136779;27;20542;-65
2023/10/23 11:12:45;;;;;;;30.42;6.72;;;;;;;27.77;36.54;96457.09;5136792;27;20047;-64
2023/10/23 11:15:13;;;;;;;23.15;6.90;;;;;;;27.70;35.95;96455.13;5136826;27;20089;-63
2023/10/23 11:17:42;;;;;;;31.33;7.00;;;;;;;27.62;36.18;96452.41;5136844;27;20054;-65
2023/10/23 11:20:13;;;;;;;21.00;6.82;;;;;;;27.59;36.55;96458.94;5136662;27;20054;-63
2023/10/23 11:22:42;;;;;;;23.88;6.65;;;;;;;27.58;36.93;96448.38;5136612;27;20480;-64
2023/10/23 11:25:10;;;;;;;26.85;6.95;;;;;;;27.59;36.67;96442.84;5136619;27;20059;-61
2023/10/23 11:27:37;;;;;;;26.63;6.63;;;;;;;27.57;36.09;96452.06;5136585;27;20082;-65